• Join FlightAware (Why Join?)
  • Login
  • US Flag 
01:35AM EDT


 

Airport Tracker/Info


-or-


 

Live Flight TrackerFlight Track Log ✈ MMY1 ✈ 11-May-2013 ✈ KLVK - KRDD

Flight Track Log - Related Links

Times and Time Zones

All times are in EDT time to prevent confusion due to time zone crossing. See the MMY1 flight status page for this flight to view local times or setup timezone preferences in your user account.

Time Position Orientation Groundspeed Altitude Reporting Facility
EDT Latitude Longitude Course Direction KTS MPH feet Rate Location/Type
02:06PM 37.7333 -121.8333 346° North 133 153 3,300  Level Northern Cal TRACON
02:07PM 37.7667 -121.8000 38° Northeast 150 173 4,600 1,320 Climbing Northern Cal TRACON
02:08PM 37.8000 -121.7667 38° Northeast 143 165 6,000 1,320 Climbing Northern Cal TRACON
02:09PM 37.8333 -121.7333 38° Northeast 156 180 7,300 1,140 Climbing Northern Cal TRACON
02:10PM 37.8833 -121.7167 15° North 163 188 8,300 1,080 Climbing Northern Cal TRACON
02:11PM 37.9044 -121.7183 356° North 165 190 9,100 1,200 Climbing Oakland Center
02:12PM 37.9500 -121.7047 13° North 169 194 10,300 1,200 Climbing Oakland Center
02:13PM 37.9942 -121.6900 15° North 165 190 11,600 1,260 Climbing Oakland Center
02:14PM 38.0358 -121.6753 16° North 157 181 12,900 1,080 Climbing Oakland Center
02:15PM 38.0789 -121.6625 13° North 160 184 13,900 1,020 Climbing Oakland Center
02:16PM 38.1250 -121.6536 North 166 191 15,000 900 Climbing Oakland Center
02:17PM 38.1711 -121.6386 14° North 172 198 15,800 480 Climbing Oakland Center
02:18PM 38.2322 -121.6175 15° North 190 219 16,000  Climbing Oakland Center
02:18PM 38.2500 -121.6167 North 197 227 15,800 -120 Descending Northern Cal TRACON
02:19PM 38.3000 -121.6000 15° North 199 229 15,900  Climbing Northern Cal TRACON
02:20PM 38.3500 -121.5833 15° North 196 226 15,800  Descending Northern Cal TRACON
02:21PM 38.4000 -121.5667 15° North 188 216 15,900  Climbing Northern Cal TRACON
02:22PM 38.4500 -121.5500 15° North 187 215 15,800  Descending Northern Cal TRACON
02:23PM 38.5000 -121.5667 345° North 189 217 15,900  Climbing Northern Cal TRACON
02:24PM 38.5667 -121.5833 349° North 191 220 15,800  Descending Northern Cal TRACON
02:25PM 38.6167 -121.6000 345° North 193 222 15,900  Climbing Northern Cal TRACON
02:26PM 38.6667 -121.6167 345° North 193 222 15,900  Level Northern Cal TRACON
02:28PM 38.7592 -121.6494 345° North 189 217 16,000  Climbing Oakland Center
02:29PM 38.8103 -121.6711 342° North 192 221 16,000  Level Oakland Center
02:30PM 38.8597 -121.6939 340° North 189 217 16,000  Level Oakland Center
02:31PM 38.9103 -121.7147 342° North 189 217 16,000  Level Oakland Center
02:32PM 38.9625 -121.7239 352° North 189 217 16,000  Level Oakland Center
02:33PM 39.0142 -121.7389 347° North 189 217 16,000  Level Oakland Center
02:34PM 39.0653 -121.7514 349° North 188 216 16,000  Level Oakland Center
02:35PM 39.1164 -121.7639 349° North 187 215 16,000  Level Oakland Center
02:36PM 39.1681 -121.7800 346° North 189 217 16,000  Level Oakland Center
02:37PM 39.2203 -121.7939 348° North 190 219 16,000  Level Oakland Center
02:38PM 39.2786 -121.8214 340° North 185 213 16,000  Level Oakland Center
02:39PM 39.3303 -121.8364 347° North 189 217 16,000 -60 Level Oakland Center
02:40PM 39.3789 -121.8617 338° Northwest 187 215 15,900 -60 Descending Oakland Center
02:42PM 39.4281 -121.8864 339° North 188 216 15,900  Level Oakland Center
02:43PM 39.4761 -121.9133 337° Northwest 187 215 15,900 -480 Level Oakland Center
02:44PM 39.5300 -121.9433 337° Northwest 201 231 15,000 -840 Descending Oakland Center
02:45PM 39.5822 -121.9653 342° North 199 229 14,200 -840 Descending Oakland Center
02:46PM 39.6331 -121.9897 340° North 197 227 13,400 -780 Descending Oakland Center
02:47PM 39.6844 -122.0128 341° North 195 224 12,700 -780 Descending Oakland Center
02:48PM 39.7331 -122.0386 338° Northwest 190 219 11,900 -840 Descending Oakland Center
02:49PM 39.7936 -122.0689 339° North 193 222 11,000 -1,020 Descending Oakland Center
02:50PM 39.8442 -122.0989 336° Northwest 198 228 9,900 -1,080 Descending Oakland Center
02:51PM 39.8969 -122.1289 336° Northwest 206 237 8,800 -960 Descending Oakland Center
02:52PM 39.9478 -122.1569 337° Northwest 198 228 8,000 -960 Descending Oakland Center
02:53PM 39.9972 -122.1836 338° Northwest 193 222 6,900 -1,080 Descending Oakland Center
02:54PM 40.0481 -122.2103 338° Northwest 196 226 5,900 -1,020 Descending Oakland Center
02:55PM 40.0978 -122.2328 341° North 194 223 4,900 -960 Descending Oakland Center
02:56PM 40.1556 -122.2569 342° North 190 219 4,000 -780 Descending Oakland Center
02:57PM 40.2011 -122.2719 346° North 183 211 3,400 -540 Descending Oakland Center
02:58PM 40.2417 -122.2806 351° North 166 191 3,000 -180 Descending Oakland Center
02:59PM 40.2778 -122.2897 349° North 148 170 3,100 -180 Climbing Oakland Center
03:00PM 40.3167 -122.2942 355° North 145 167 2,700 -180 Descending Oakland Center
03:01PM 40.3550 -122.2925 North 143 165 2,800 -60 Climbing Oakland Center
03:02PM 40.3956 -122.2942 358° North 143 165 2,600 -600 Descending Oakland Center
03:03PM 40.4358 -122.2950 359° North 144 166 1,700 -840 Descending Oakland Center
03:04PM 40.4769 -122.2950 360° North 134 154 1,000 -480 Descending Oakland Center
03:05PM 40.5053 -122.2942 North 128 147 800 -240 Descending Oakland Center